createdAt,value
2019-05-18T00:01:25.194Z,93.48
2019-05-18T00:03:54.777Z,91.77
2019-05-18T00:06:24.397Z,90.79
2019-05-18T00:08:54.023Z,90.26
2019-05-18T00:11:23.636Z,90.70
2019-05-18T00:13:53.323Z,92.48
2019-05-18T00:16:23.024Z,93.62
2019-05-18T00:18:52.681Z,96.21
2019-05-18T00:21:22.308Z,93.91
2019-05-18T00:23:51.926Z,95.00
2019-05-18T00:26:21.485Z,94.94
2019-05-18T00:28:51.142Z,92.60
2019-05-18T00:31:20.987Z,92.47
2019-05-18T00:33:50.745Z,94.74
2019-05-18T00:36:20.319Z,95.72
2019-05-18T00:38:49.941Z,94.50
2019-05-18T00:41:19.563Z,94.93
2019-05-18T00:43:49.183Z,100.00
2019-05-18T00:46:18.852Z,99.93
2019-05-18T00:48:48.504Z,96.01
2019-05-18T00:51:18.101Z,96.62
2019-05-18T00:57:52.528Z,100.00
2019-05-18T01:00:22.287Z,100.00
2019-05-18T01:02:51.942Z,100.00
2019-05-18T01:05:21.541Z,100.00
2019-05-18T01:07:51.189Z,100.00
2019-05-18T01:10:21.371Z,100.00
2019-05-18T01:12:50.975Z,100.00
2019-05-18T01:15:20.962Z,100.00
2019-05-18T01:17:57.343Z,100.00
2019-05-18T01:20:22.133Z,100.00
2019-05-18T01:22:51.729Z,100.00
2019-05-18T01:25:21.308Z,100.00
2019-05-18T01:27:50.932Z,100.00
2019-05-18T01:30:21.108Z,100.00
2019-05-18T01:32:50.766Z,100.00
2019-05-18T01:35:20.534Z,100.00
2019-05-18T01:37:50.100Z,100.00
2019-05-18T01:40:21.344Z,100.00
2019-05-18T01:42:50.975Z,100.00
2019-05-18T01:45:20.589Z,100.00
2019-05-18T01:47:50.240Z,100.00
2019-05-18T01:50:19.958Z,100.00
2019-05-18T01:52:49.647Z,100.00
2019-05-18T01:55:19.227Z,100.00
2019-05-18T01:57:48.844Z,100.00
2019-05-18T02:00:19.009Z,100.00
2019-05-18T02:02:48.725Z,100.00
2019-05-18T02:05:18.352Z,100.00
2019-05-18T02:07:48.026Z,100.00
2019-05-18T02:10:17.771Z,100.00
2019-05-18T02:12:47.352Z,100.00
2019-05-18T02:15:17.269Z,100.00
2019-05-18T02:17:46.857Z,100.00
2019-05-18T02:20:16.773Z,100.00
2019-05-18T02:22:46.416Z,100.00
2019-05-18T02:25:16.583Z,100.00
2019-05-18T02:27:46.178Z,100.00
2019-05-18T02:30:17.495Z,100.00
2019-05-18T02:32:47.450Z,100.00
2019-05-18T02:35:17.183Z,100.00
2019-05-18T02:37:46.809Z,100.00
2019-05-18T02:40:16.603Z,100.00
2019-05-18T02:42:46.192Z,100.00
2019-05-18T02:45:16.016Z,100.00
2019-05-18T02:47:45.579Z,100.00
2019-05-18T02:50:15.940Z,100.00
2019-05-18T02:52:45.513Z,100.00
2019-05-18T02:55:15.231Z,100.00
2019-05-18T02:57:44.816Z,100.00
2019-05-18T03:00:14.602Z,100.00
2019-05-18T03:02:44.267Z,100.00
2019-05-18T03:05:14.058Z,100.00
2019-05-18T03:07:43.796Z,100.00
2019-05-18T03:10:13.617Z,100.00
2019-05-18T03:12:43.279Z,100.00
2019-05-18T03:15:13.215Z,100.00
2019-05-18T03:17:42.788Z,100.00
2019-05-18T03:20:12.863Z,100.00
2019-05-18T03:22:42.477Z,100.00
2019-05-18T03:25:12.072Z,100.00
2019-05-18T03:27:41.713Z,100.00
2019-05-18T03:30:11.739Z,100.00
2019-05-18T03:32:41.390Z,100.00
2019-05-18T03:35:11.670Z,100.00
2019-05-18T03:37:41.308Z,100.00
2019-05-18T03:40:11.588Z,100.00
2019-05-18T03:42:41.193Z,100.00
2019-05-18T03:45:11.148Z,100.00
2019-05-18T03:47:40.750Z,100.00
2019-05-18T03:50:11.435Z,100.00
2019-05-18T03:52:41.069Z,100.00
2019-05-18T03:55:10.840Z,100.00
2019-05-18T03:57:40.567Z,100.00
2019-05-18T04:00:10.517Z,100.00
2019-05-18T04:02:40.213Z,100.00
2019-05-18T04:05:10.067Z,100.00
2019-05-18T04:07:39.694Z,100.00
2019-05-18T04:10:09.958Z,100.00
2019-05-18T04:12:39.571Z,100.00
2019-05-18T04:15:10.065Z,100.00
2019-05-18T04:17:39.709Z,100.00
2019-05-18T04:20:10.216Z,100.00
2019-05-18T04:22:39.847Z,100.00
2019-05-18T04:25:09.575Z,100.00
2019-05-18T04:27:39.197Z,100.00
2019-05-18T04:30:09.657Z,100.00
2019-05-18T04:32:39.481Z,100.00
2019-05-18T04:35:09.316Z,100.00
2019-05-18T04:37:38.984Z,100.00
2019-05-18T04:40:09.092Z,100.00
2019-05-18T04:42:38.706Z,100.00
2019-05-18T04:45:08.676Z,100.00
2019-05-18T04:47:38.345Z,100.00
2019-05-18T04:50:08.553Z,100.00
2019-05-18T04:52:38.194Z,100.00
2019-05-18T04:55:07.976Z,100.00
2019-05-18T04:57:37.603Z,100.00
2019-05-18T05:00:07.663Z,100.00
2019-05-18T05:02:37.285Z,100.00
2019-05-18T05:05:07.440Z,100.00
2019-05-18T05:07:37.039Z,100.00
2019-05-18T05:10:07.974Z,100.00
2019-05-18T05:12:37.626Z,100.00
2019-05-18T05:15:07.309Z,100.00
2019-05-18T05:17:37.100Z,100.00
2019-05-18T05:20:18.750Z,100.00
2019-05-18T05:22:38.135Z,100.00
2019-05-18T05:25:07.876Z,100.00
2019-05-18T05:27:37.481Z,100.00
2019-05-18T05:30:07.697Z,100.00
2019-05-18T05:32:37.295Z,100.00
2019-05-18T05:35:07.452Z,100.00
2019-05-18T05:37:37.142Z,100.00
2019-05-18T05:40:07.302Z,100.00
2019-05-18T05:42:36.900Z,100.00
2019-05-18T05:45:06.901Z,100.00
2019-05-18T05:47:36.539Z,100.00
2019-05-18T05:50:07.097Z,100.00
2019-05-18T05:52:36.734Z,100.00
2019-05-18T05:55:07.107Z,100.00
2019-05-18T05:57:36.795Z,100.00
2019-05-18T06:00:07.974Z,100.00
2019-05-18T06:02:37.625Z,100.00
2019-05-18T06:05:07.729Z,100.00
2019-05-18T06:07:37.388Z,100.00
2019-05-18T06:10:07.478Z,100.00
2019-05-18T06:12:37.074Z,100.00
2019-05-18T06:15:07.194Z,100.00
2019-05-18T06:17:36.786Z,100.00
2019-05-18T06:20:06.898Z,100.00
2019-05-18T06:22:36.541Z,98.58
2019-05-18T06:25:07.029Z,100.00
2019-05-18T06:27:36.699Z,97.24
2019-05-18T06:30:07.067Z,99.62
2019-05-18T06:32:36.688Z,89.68
2019-05-18T06:35:06.639Z,98.25
2019-05-18T06:37:36.211Z,95.14
2019-05-18T06:40:06.359Z,85.20
2019-05-18T06:42:35.953Z,89.59
2019-05-18T06:45:05.988Z,84.51
2019-05-18T06:47:35.577Z,88.30
2019-05-18T06:50:05.359Z,83.00
2019-05-18T06:52:35.012Z,80.51
2019-05-18T06:55:04.899Z,81.27
2019-05-18T06:57:35.143Z,79.93
2019-05-18T07:00:05.890Z,83.00
2019-05-18T07:02:35.438Z,82.61
2019-05-18T07:05:05.463Z,81.34
2019-05-18T07:07:35.040Z,72.10
2019-05-18T07:10:04.929Z,76.18
2019-05-18T07:12:34.645Z,77.89
2019-05-18T07:15:04.494Z,76.74
2019-05-18T07:17:34.754Z,74.07
2019-05-18T07:20:04.545Z,74.09
2019-05-18T07:22:34.154Z,71.01
2019-05-18T07:25:03.883Z,73.79
2019-05-18T07:27:33.524Z,69.13
2019-05-18T07:30:03.163Z,66.78
2019-05-18T07:32:32.754Z,61.85
2019-05-18T07:35:02.378Z,63.12
2019-05-18T07:37:32.008Z,62.62
2019-05-18T07:40:01.665Z,57.70
2019-05-18T07:42:31.390Z,59.27
2019-05-18T07:45:01.022Z,56.60
2019-05-18T07:47:30.615Z,56.90
2019-05-18T07:50:00.242Z,58.05
2019-05-18T07:52:29.853Z,55.34
2019-05-18T07:54:59.503Z,51.76
2019-05-18T07:57:29.162Z,53.74
2019-05-18T07:59:58.732Z,51.66
2019-05-18T08:02:28.316Z,52.49
2019-05-18T08:04:57.912Z,50.77
2019-05-18T08:07:27.533Z,49.88
2019-05-18T08:09:57.185Z,48.24
2019-05-18T08:12:26.812Z,47.60
2019-05-18T08:14:56.506Z,47.61
2019-05-18T08:17:26.073Z,46.78
2019-05-18T08:19:55.690Z,48.05
2019-05-18T08:22:25.276Z,45.56
2019-05-18T08:24:54.898Z,46.17
2019-05-18T08:27:24.529Z,46.95
2019-05-18T08:29:54.132Z,45.25
2019-05-18T08:32:23.785Z,45.88
2019-05-18T08:34:53.409Z,45.51
2019-05-18T08:37:22.998Z,48.23
2019-05-18T08:39:52.606Z,48.42
2019-05-18T08:42:22.198Z,50.25
2019-05-18T08:44:51.863Z,47.69
2019-05-18T08:47:21.539Z,48.44
2019-05-18T08:49:51.175Z,47.60
2019-05-18T08:52:20.784Z,46.44
2019-05-18T08:54:50.391Z,47.05
2019-05-18T08:57:20.030Z,45.70
2019-05-18T08:59:49.597Z,46.24
2019-05-18T09:02:19.182Z,47.18
2019-05-18T09:04:48.806Z,47.90
2019-05-18T09:07:18.393Z,47.90
2019-05-18T09:09:48.003Z,41.92
2019-05-18T09:12:17.627Z,41.87
2019-05-18T09:14:47.341Z,43.76
2019-05-18T09:17:16.933Z,43.56
2019-05-18T09:19:46.517Z,45.00
2019-05-18T09:22:23.283Z,43.62
2019-05-18T09:24:47.492Z,43.47
2019-05-18T09:27:17.040Z,43.41
2019-05-18T09:29:46.671Z,43.38
2019-05-18T09:32:16.278Z,43.27
2019-05-18T09:34:45.875Z,40.17
2019-05-18T09:37:15.517Z,41.14
2019-05-18T09:39:45.082Z,41.52
2019-05-18T09:42:14.690Z,38.32
2019-05-18T09:44:44.275Z,38.94
2019-05-18T09:47:13.852Z,38.76
2019-05-18T09:49:43.500Z,39.55
2019-05-18T09:52:13.100Z,39.52
2019-05-18T09:54:42.658Z,39.40
2019-05-18T09:57:12.242Z,40.79
2019-05-18T09:59:41.822Z,40.11
2019-05-18T10:02:11.455Z,39.64
2019-05-18T10:04:41.029Z,42.44
2019-05-18T10:07:10.602Z,37.21
2019-05-18T10:09:40.213Z,39.25
2019-05-18T10:12:09.818Z,38.22
2019-05-18T10:14:39.434Z,39.99
2019-05-18T10:17:09.017Z,37.13
2019-05-18T10:19:38.613Z,39.73
2019-05-18T10:22:08.198Z,38.78
2019-05-18T10:24:37.775Z,39.00
2019-05-18T10:27:07.474Z,38.84
2019-05-18T10:29:37.120Z,37.51
2019-05-18T10:32:06.801Z,38.14
2019-05-18T10:34:36.368Z,37.58
2019-05-18T10:37:05.944Z,37.04
2019-05-18T10:39:38.613Z,34.51
2019-05-18T10:42:06.955Z,38.96
2019-05-18T10:44:36.523Z,40.53
2019-05-18T10:47:06.148Z,33.71
2019-05-18T10:49:35.747Z,38.58
2019-05-18T10:52:05.394Z,34.73
2019-05-18T10:54:35.018Z,37.24
2019-05-18T10:57:04.694Z,37.13
2019-05-18T10:59:34.295Z,35.47
2019-05-18T11:02:04.586Z,33.44
2019-05-18T11:04:34.284Z,33.53
2019-05-18T11:07:03.888Z,34.81
2019-05-18T11:09:33.461Z,35.93
2019-05-18T11:12:03.175Z,34.01
2019-05-18T11:14:32.758Z,34.10
2019-05-18T11:17:02.368Z,33.76
2019-05-18T11:19:31.878Z,35.06
2019-05-18T11:22:01.475Z,36.30
2019-05-18T11:24:31.060Z,37.65
2019-05-18T11:27:00.729Z,35.53
2019-05-18T11:29:30.452Z,33.72
2019-05-18T11:32:00.122Z,33.05
2019-05-18T11:34:29.701Z,33.63
2019-05-18T11:37:02.978Z,34.88
2019-05-18T11:39:30.616Z,36.52
2019-05-18T11:42:00.311Z,37.14
2019-05-18T11:44:29.908Z,38.10
2019-05-18T11:46:59.520Z,38.23
2019-05-18T11:49:29.319Z,37.35
2019-05-18T11:51:58.861Z,36.44
2019-05-18T11:54:28.511Z,37.14
2019-05-18T11:56:58.107Z,36.93
2019-05-18T11:59:27.696Z,35.88
2019-05-18T12:06:00.198Z,33.91
2019-05-18T12:08:29.862Z,35.89
2019-05-18T12:10:59.441Z,33.60
2019-05-18T12:13:29.148Z,32.55
2019-05-18T12:15:58.738Z,32.02
2019-05-18T12:18:28.392Z,33.53
2019-05-18T12:20:57.978Z,35.92
2019-05-18T12:23:27.562Z,34.74
2019-05-18T12:25:57.254Z,33.41
2019-05-18T12:28:26.848Z,34.61
2019-05-18T12:30:56.499Z,34.06
2019-05-18T12:33:26.077Z,33.13
2019-05-18T12:35:55.650Z,32.95
2019-05-18T12:38:25.247Z,33.37
2019-05-18T12:40:55.409Z,32.87
2019-05-18T12:43:25.035Z,33.51
2019-05-18T12:45:54.739Z,32.90
2019-05-18T12:48:24.325Z,31.88
2019-05-18T12:50:53.950Z,35.22
2019-05-18T12:56:06.986Z,36.30
2019-05-18T12:58:37.723Z,36.70
2019-05-18T13:01:07.554Z,37.63
2019-05-18T13:03:37.159Z,36.82
2019-05-18T13:06:06.843Z,35.63
2019-05-18T13:08:36.492Z,37.20
2019-05-18T13:11:06.382Z,34.24
2019-05-18T13:13:35.969Z,37.70
2019-05-18T13:16:05.683Z,38.56
2019-05-18T13:18:35.293Z,38.96
2019-05-18T13:21:04.979Z,38.96
2019-05-18T13:23:34.641Z,40.04
2019-05-18T13:26:04.265Z,36.01
2019-05-18T13:28:33.859Z,37.70
2019-05-18T13:31:03.466Z,37.02
2019-05-18T13:33:33.091Z,34.94
2019-05-18T13:36:02.669Z,34.69
2019-05-18T13:38:32.250Z,35.12
2019-05-18T13:41:01.858Z,32.64
2019-05-18T13:43:31.488Z,34.54
2019-05-18T13:46:01.082Z,34.87
2019-05-18T13:48:30.635Z,35.77
2019-05-18T13:51:00.255Z,37.53
2019-05-18T13:53:29.865Z,34.08
2019-05-18T13:55:59.429Z,34.75
2019-05-18T13:58:29.103Z,36.68
2019-05-18T14:00:58.697Z,36.45
2019-05-18T14:03:28.277Z,35.96
2019-05-18T14:05:57.902Z,36.33
2019-05-18T14:08:27.487Z,36.49
2019-05-18T14:10:57.128Z,36.01
2019-05-18T14:13:26.702Z,35.20
2019-05-18T14:15:56.303Z,35.00
2019-05-18T14:18:25.876Z,34.38
2019-05-18T14:20:55.443Z,35.88
2019-05-18T14:23:25.086Z,33.70
2019-05-18T14:25:54.706Z,33.39
2019-05-18T14:28:24.301Z,32.72
2019-05-18T14:30:53.930Z,33.99
2019-05-18T14:33:23.472Z,34.93
2019-05-18T14:35:53.019Z,35.17
2019-05-18T14:38:22.603Z,34.77
2019-05-18T14:40:52.177Z,32.99
2019-05-18T14:43:21.764Z,32.36
2019-05-18T14:45:51.353Z,35.53
2019-05-18T14:48:20.943Z,35.83
2019-05-18T14:50:50.566Z,34.57
2019-05-18T14:53:20.165Z,34.06
2019-05-18T14:55:49.789Z,32.73
2019-05-18T14:58:19.514Z,33.03
2019-05-18T15:00:49.094Z,32.72
2019-05-18T15:03:18.717Z,31.15
2019-05-18T15:05:48.378Z,32.83
2019-05-18T15:08:18.063Z,33.69
2019-05-18T15:10:47.659Z,32.47
2019-05-18T15:13:17.303Z,33.28
2019-05-18T15:15:47.019Z,35.60
2019-05-18T15:18:16.687Z,34.41
2019-05-18T15:20:46.281Z,32.95
2019-05-18T15:23:15.888Z,34.25
2019-05-18T15:25:50.528Z,34.25
2019-05-18T15:28:16.852Z,34.64
2019-05-18T15:30:46.488Z,34.17
2019-05-18T15:33:16.069Z,34.06
2019-05-18T15:35:45.647Z,34.91
2019-05-18T15:38:15.222Z,33.10
2019-05-18T15:40:44.810Z,33.24
2019-05-18T15:43:14.422Z,35.00
2019-05-18T15:45:43.994Z,34.81
2019-05-18T15:48:13.590Z,34.69
2019-05-18T15:50:43.195Z,35.50
2019-05-18T15:53:12.877Z,34.77
2019-05-18T15:55:42.503Z,35.98
2019-05-18T15:58:12.072Z,36.33
2019-05-18T16:00:41.684Z,36.89
2019-05-18T16:03:11.298Z,38.09
2019-05-18T16:05:40.872Z,37.60
2019-05-18T16:08:10.594Z,38.06
2019-05-18T16:10:40.174Z,38.13
2019-05-18T16:13:09.860Z,37.74
2019-05-18T16:15:39.539Z,36.50
2019-05-18T16:18:09.281Z,36.31
2019-05-18T16:20:38.948Z,36.83
2019-05-18T16:23:08.673Z,35.50
2019-05-18T16:25:38.374Z,36.25
2019-05-18T16:28:08.064Z,36.65
2019-05-18T16:30:37.660Z,36.28
2019-05-18T16:33:07.419Z,36.52
2019-05-18T16:35:37.077Z,37.88
2019-05-18T16:38:06.650Z,38.15
2019-05-18T16:40:36.261Z,37.28
2019-05-18T16:43:05.881Z,36.58
2019-05-18T16:45:35.513Z,36.40
2019-05-18T16:48:05.081Z,35.85
2019-05-18T16:50:34.656Z,35.91
2019-05-18T16:57:14.155Z,36.12
2019-05-18T16:59:44.070Z,36.82
2019-05-18T17:02:14.103Z,36.00
2019-05-18T17:04:43.963Z,36.46
2019-05-18T17:07:14.043Z,36.65
2019-05-18T17:09:43.899Z,36.33
2019-05-18T17:12:13.751Z,36.03
2019-05-18T17:14:43.529Z,36.27
2019-05-18T17:17:13.466Z,36.33
2019-05-18T17:19:43.341Z,36.32
2019-05-18T17:22:13.250Z,36.80
2019-05-18T17:24:43.050Z,36.79
2019-05-18T17:27:13.077Z,36.58
2019-05-18T17:29:43.033Z,36.36
2019-05-18T17:32:13.628Z,36.31
2019-05-18T17:34:43.191Z,36.53
2019-05-18T17:37:12.780Z,37.06
2019-05-18T17:39:42.386Z,36.68
2019-05-18T17:42:12.004Z,36.57
2019-05-18T17:44:41.622Z,37.98
2019-05-18T17:47:11.210Z,37.62
2019-05-18T17:49:40.933Z,38.01
2019-05-18T17:52:10.717Z,39.20
2019-05-18T17:54:40.406Z,39.15
2019-05-18T17:57:10.032Z,39.23
2019-05-18T17:59:39.629Z,39.72
2019-05-18T18:02:09.243Z,40.04
2019-05-18T18:04:38.863Z,40.66
2019-05-18T18:07:08.631Z,41.18
2019-05-18T18:09:38.210Z,41.71
2019-05-18T18:12:07.798Z,41.81
2019-05-18T18:14:37.386Z,41.45
2019-05-18T18:17:06.990Z,41.92
2019-05-18T18:19:36.621Z,42.06
2019-05-18T18:22:06.296Z,41.80
2019-05-18T18:24:35.959Z,41.81
2019-05-18T18:27:05.635Z,41.71
2019-05-18T18:29:35.313Z,41.54
2019-05-18T18:32:04.994Z,41.95
2019-05-18T18:34:34.635Z,42.11
2019-05-18T18:37:04.238Z,42.00
2019-05-18T18:39:33.822Z,42.02
2019-05-18T18:42:03.441Z,42.71
2019-05-18T18:44:33.118Z,41.95
2019-05-18T18:47:02.782Z,42.09
2019-05-18T18:49:32.448Z,41.58
2019-05-18T18:52:02.019Z,41.64
2019-05-18T18:54:31.577Z,41.97
2019-05-18T18:57:01.326Z,41.97
2019-05-18T18:59:30.973Z,42.30
2019-05-18T19:02:00.544Z,42.29
2019-05-18T19:04:30.160Z,42.30
2019-05-18T19:06:59.744Z,41.93
2019-05-18T19:09:29.385Z,41.87
2019-05-18T19:11:58.988Z,41.44
2019-05-18T19:14:28.619Z,41.49
2019-05-18T19:16:59.244Z,40.80
2019-05-18T19:19:28.864Z,40.43
2019-05-18T19:21:58.475Z,41.42
2019-05-18T19:24:28.056Z,41.35
2019-05-18T19:26:57.682Z,40.23
2019-05-18T19:29:27.297Z,40.08
2019-05-18T19:31:56.925Z,39.81
2019-05-18T19:34:26.572Z,39.27
2019-05-18T19:36:56.169Z,39.30
2019-05-18T19:39:25.806Z,38.50
2019-05-18T19:41:55.418Z,38.48
2019-05-18T19:44:25.130Z,38.53
2019-05-18T19:46:54.767Z,38.26
2019-05-18T19:49:24.351Z,38.21
2019-05-18T19:51:53.946Z,38.30
2019-05-18T19:54:23.555Z,37.67
2019-05-18T19:56:53.226Z,37.59
2019-05-18T19:59:22.879Z,38.86
2019-05-18T20:01:52.448Z,38.28
2019-05-18T20:04:22.121Z,39.53
2019-05-18T20:06:51.760Z,46.77
2019-05-18T20:09:21.406Z,45.36
2019-05-18T20:11:51.055Z,45.36
2019-05-18T20:14:20.658Z,45.93
2019-05-18T20:16:50.315Z,46.10
2019-05-18T20:19:19.906Z,44.38
2019-05-18T20:21:49.543Z,44.85
2019-05-18T20:24:19.172Z,44.44
2019-05-18T20:26:51.088Z,45.23
2019-05-18T20:29:20.688Z,44.53
2019-05-18T20:31:50.347Z,45.42
2019-05-18T20:34:19.945Z,40.91
2019-05-18T20:36:49.635Z,41.39
2019-05-18T20:39:19.217Z,41.39
2019-05-18T20:41:48.799Z,41.06
2019-05-18T20:44:18.402Z,41.44
2019-05-18T20:46:48.021Z,41.22
2019-05-18T20:49:17.709Z,40.63
2019-05-18T20:51:47.314Z,40.51
2019-05-18T20:54:16.969Z,41.39
2019-05-18T20:56:46.598Z,45.11
2019-05-18T20:59:16.187Z,45.11
2019-05-18T21:01:45.841Z,43.60
2019-05-18T21:04:15.526Z,44.66
2019-05-18T21:06:45.788Z,44.80
2019-05-18T21:09:15.505Z,45.00
2019-05-18T21:11:45.226Z,46.39
2019-05-18T21:14:14.912Z,48.03
2019-05-18T21:16:44.524Z,47.82
2019-05-18T21:19:14.155Z,47.46
2019-05-18T21:21:43.806Z,49.03
2019-05-18T21:24:13.445Z,48.12
2019-05-18T21:26:43.059Z,48.62
2019-05-18T21:29:12.679Z,44.41
2019-05-18T21:31:42.361Z,43.57
2019-05-18T21:34:11.987Z,44.13
2019-05-18T21:36:41.617Z,44.75
2019-05-18T21:39:11.262Z,45.52
2019-05-18T21:41:40.896Z,45.82
2019-05-18T21:44:10.606Z,45.49
2019-05-18T21:46:40.198Z,45.05
2019-05-18T21:49:10.006Z,45.34
2019-05-18T21:51:39.664Z,44.06
2019-05-18T21:54:09.276Z,44.03
2019-05-18T21:56:38.881Z,44.25
2019-05-18T21:59:11.884Z,44.09
2019-05-18T22:01:39.887Z,44.50
2019-05-18T22:04:09.548Z,44.76
2019-05-18T22:06:39.163Z,43.40
2019-05-18T22:09:08.944Z,44.43
2019-05-18T22:11:38.590Z,43.92
2019-05-18T22:14:08.214Z,44.16
2019-05-18T22:16:37.977Z,44.84
2019-05-18T22:19:07.572Z,44.62
2019-05-18T22:21:37.181Z,44.73
2019-05-18T22:24:06.863Z,45.04
2019-05-18T22:26:36.476Z,44.77
2019-05-18T22:29:06.229Z,44.76
2019-05-18T22:31:35.899Z,44.45
2019-05-18T22:34:05.526Z,44.66
2019-05-18T22:36:35.116Z,44.51
2019-05-18T22:39:06.053Z,45.69
2019-05-18T22:41:35.822Z,46.03
2019-05-18T22:44:05.688Z,45.64
2019-05-18T22:46:35.308Z,46.69
2019-05-18T22:49:04.900Z,47.02
2019-05-18T22:51:34.511Z,46.96
2019-05-18T22:54:04.122Z,47.30
2019-05-18T22:56:33.799Z,48.13
2019-05-18T22:59:03.460Z,48.87
2019-05-18T23:01:33.091Z,49.63
2019-05-18T23:04:02.702Z,49.83
2019-05-18T23:06:32.329Z,50.21
2019-05-18T23:09:02.008Z,49.93
2019-05-18T23:11:31.615Z,50.14
2019-05-18T23:14:01.226Z,50.12
2019-05-18T23:16:30.822Z,49.95
2019-05-18T23:19:00.432Z,50.03
2019-05-18T23:21:30.092Z,50.01
2019-05-18T23:23:59.705Z,50.31
2019-05-18T23:26:29.359Z,50.80
2019-05-18T23:28:59.029Z,50.59
2019-05-18T23:31:28.646Z,51.33
2019-05-18T23:33:58.298Z,51.71
2019-05-18T23:36:27.886Z,51.22
2019-05-18T23:38:57.581Z,50.70
2019-05-18T23:41:27.190Z,50.63
2019-05-18T23:43:56.822Z,51.15
2019-05-18T23:46:26.528Z,51.46
2019-05-18T23:49:08.720Z,51.72
2019-05-18T23:51:27.518Z,52.23
2019-05-18T23:53:57.101Z,51.92
2019-05-18T23:56:26.707Z,52.60
2019-05-18T23:58:56.361Z,53.11
